Audubon, Illinois
Current Conditions -  °F | °C
As of 9:55 AM on Monday 24 Nov 2014 (Local Time) from KTAZ Reporting Station
Overcast Overcast  
Wind Chill: 23°   Ceiling: 2100
Heat Index: 34°   Visibility: 10mi
Dew Point: 30°   Wind: 18mph
Humidity: 87%   Direction: 260°W
Pressure: 29.57"   Gusts: 30mph
Location:  39.3183°N, 89.2952°W
Report Text: KTAZ 241555Z AUTO 26016G26KT 10SM OVC021 01/M01 A2957 RMK AO2
Loading
Personal Weather Stations






























Interactive Weather Map New forecast layout! Learn more

10-Day Weather Forecast

Advertisements
Track Severe Weather on mobile